Welcome to Northern Hawkes Bay. New Zealand.
PWS Header
      nz Flag



Hit Counter


W3C Valid W3C Valid logo


    Wairoa

Select any of the Stations below to visit their websites.










Historic Data from Weather Underground
Select the location of interest below. Wairoa is the default. Please have patience, this Data is slow to load in.
Northern Hawkes Bay Historical Data
Daily Summary for February 2, 2017 Units:  Metric    English   Both
« Previous Day
Next Day »
Daily Weekly Monthly Yearly Custom
  High: Low: Average:
Temperature: 26.9 °C 17.2 °C 22 °C
Dew Point: 20.7 °C 14.1 °C 16.1 °C
Humidity: 84% 49% 70%
Wind Speed: 14.8km/h 0.0km/h 5.1km/h
Wind Gust: 31.7km/h - -
Wind- - West
Pressure: 1015.5 hPa 1011.7 hPa -
Precipitation: 0.5 mm    
Historical Graphs
 
 
Tabular Data for February 2, 2017
Time Temperature Dew Point Pressure Wind Wind Speed Wind Gust Humidity Rainfall Rate (Hourly) solar
00:02 22.1 °C 14.2 °C 1014.8 hPa NW 13.4 km/h 31.7 km/h 61% 0.0 mm 0 W/m2
00:07 22.0 °C 14.4 °C 1014.8 hPa NW 9.7 km/h 21.9 km/h 62% 0.0 mm 0 W/m2
00:12 22.0 °C 14.4 °C 1015.5 hPa NW 9.7 km/h 21.9 km/h 62% 0.0 mm 0 W/m2
00:17 22.1 °C 14.5 °C 1015.1 hPa NNW 11.1 km/h 17.2 km/h 62% 0.0 mm 0 W/m2
00:22 21.9 °C 14.6 °C 1014.8 hPa North 8.7 km/h 17.2 km/h 63% 0.0 mm 0 W/m2
00:27 21.6 °C 14.5 °C 1015.1 hPa North 7.2 km/h 15.8 km/h 64% 0.0 mm 0 W/m2
00:32 21.4 °C 14.3 °C 1014.8 hPa North 9.7 km/h 15.8 km/h 64% 0.0 mm 0 W/m2
00:37 21.6 °C 14.5 °C 1014.8 hPa North 12.2 km/h 19.5 km/h 64% 0.0 mm 0 W/m2
00:42 21.7 °C 14.6 °C 1014.8 hPa NNW 11.1 km/h 23.3 km/h 64% 0.0 mm 0 W/m2
00:47 21.7 °C 14.6 °C 1014.8 hPa NNW 8.7 km/h 23.3 km/h 64% 0.0 mm 0 W/m2
00:52 21.7 °C 14.6 °C 1014.8 hPa NNW 7.2 km/h 19.5 km/h 64% 0.0 mm 0 W/m2
00:57 21.7 °C 14.6 °C 1014.4 hPa NNW 11.1 km/h 19.5 km/h 64% 0.0 mm 0 W/m2
01:18 21.3 °C 14.4 °C 1014.8 hPa East 2.6 km/h 7.2 km/h 65% 0.0 mm 0 W/m2
01:23 21.2 °C 14.4 °C 1014.8 hPa ENE 3.5 km/h 7.2 km/h 65% 0.0 mm 0 W/m2
01:28 21.1 °C 14.3 °C 1014.4 hPa NNE 3.5 km/h 6.1 km/h 65% 0.0 mm 0 W/m2
01:33 20.9 °C 14.6 °C 1014.4 hPa NNW 5.0 km/h 8.7 km/h 67% 0.0 mm 0 W/m2
01:38 20.9 °C 14.6 °C 1014.4 hPa NNW 2.6 km/h 8.7 km/h 67% 0.0 mm 0 W/m2
01:43 20.8 °C 14.4 °C 1014.8 hPa Calm   8.7 km/h 67% 0.0 mm 0 W/m2
01:48 20.6 °C 14.5 °C 1014.8 hPa NE 2.6 km/h 7.2 km/h 68% 0.0 mm 0 W/m2
01:53 20.6 °C 14.7 °C 1014.8 hPa NE 5.0 km/h 9.7 km/h 69% 0.0 mm 0 W/m2
01:58 20.7 °C 14.8 °C 1014.8 hPa NE 7.2 km/h 15.8 km/h 69% 0.0 mm 0 W/m2
02:03 20.6 °C 14.7 °C 1014.8 hPa NE 2.6 km/h 15.8 km/h 69% 0.0 mm 0 W/m2
02:08 20.4 °C 14.6 °C 1014.8 hPa NE 2.6 km/h 11.1 km/h 69% 0.0 mm 0 W/m2
02:13 20.3 °C 14.7 °C 1014.4 hPa NNE 3.5 km/h 9.7 km/h 70% 0.0 mm 0 W/m2
02:18 20.3 °C 14.7 °C 1014.4 hPa NNE 3.5 km/h 9.7 km/h 70% 0.0 mm 0 W/m2
02:23 20.3 °C 14.7 °C 1014.1 hPa NE 3.5 km/h 8.7 km/h 70% 0.0 mm 0 W/m2
02:28 20.4 °C 14.8 °C 1014.1 hPa Calm   8.7 km/h 70% 0.0 mm 0 W/m2
02:33 20.3 °C 14.7 °C 1014.4 hPa NE 5.0 km/h 8.7 km/h 70% 0.0 mm 0 W/m2
02:38 20.3 °C 14.7 °C 1014.1 hPa Calm   7.2 km/h 70% 0.0 mm 0 W/m2
02:43 20.3 °C 14.9 °C 1014.4 hPa ENE 3.5 km/h 8.7 km/h 71% 0.0 mm 0 W/m2
02:48 20.4 °C 14.8 °C 1014.1 hPa NNE 2.6 km/h 8.7 km/h 70% 0.0 mm 0 W/m2
02:53 20.4 °C 14.8 °C 1014.1 hPa North 2.6 km/h 7.2 km/h 70% 0.0 mm 0 W/m2
02:58 20.4 °C 14.8 °C 1014.1 hPa North 2.6 km/h 6.1 km/h 70% 0.0 mm 0 W/m2
03:03 20.1 °C 14.4 °C 1014.1 hPa NW 3.5 km/h 6.1 km/h 70% 0.0 mm 0 W/m2
03:08 19.7 °C 14.5 °C 1014.1 hPa WNW 2.6 km/h 6.1 km/h 72% 0.0 mm 0 W/m2
03:13 19.4 °C 14.4 °C 1014.4 hPa NW 2.6 km/h 6.1 km/h 73% 0.0 mm 0 W/m2
03:18 19.2 °C 14.4 °C 1014.1 hPa NW 3.5 km/h 6.1 km/h 74% 0.0 mm 0 W/m2
03:23 18.9 °C 14.6 °C 1014.1 hPa NW 3.5 km/h 6.1 km/h 76% 0.0 mm 0 W/m2
03:28 18.8 °C 14.5 °C 1014.4 hPa NW 2.6 km/h 6.1 km/h 76% 0.0 mm 0 W/m2
03:33 18.7 °C 14.6 °C 1014.1 hPa NW 5.0 km/h 6.1 km/h 77% 0.0 mm 0 W/m2
03:38 18.6 °C 14.5 °C 1014.4 hPa NW 3.5 km/h 7.2 km/h 77% 0.0 mm 0 W/m2
03:43 18.6 °C 14.7 °C 1014.4 hPa NW 2.6 km/h 7.2 km/h 78% 0.0 mm 0 W/m2
03:48 18.5 °C 14.6 °C 1014.4 hPa Calm   6.1 km/h 78% 0.0 mm 0 W/m2
03:53 18.5 °C 14.6 °C 1014.4 hPa Calm   6.1 km/h 78% 0.0 mm 0 W/m2
03:58 18.4 °C 14.5 °C 1014.4 hPa NW 2.6 km/h 6.1 km/h 78% 0.0 mm 0 W/m2
04:03 18.4 °C 14.5 °C 1014.4 hPa Calm   5.0 km/h 78% 0.0 mm 0 W/m2
04:08 18.4 °C 14.5 °C 1014.1 hPa NNW 2.6 km/h 5.0 km/h 78% 0.0 mm 0 W/m2
04:13 18.4 °C 14.5 °C 1014.1 hPa NW 2.6 km/h 5.0 km/h 78% 0.0 mm 0 W/m2
04:18 18.2 °C 14.3 °C 1014.1 hPa Calm   5.0 km/h 78% 0.0 mm 0 W/m2
04:23 18.2 °C 14.3 °C 1014.1 hPa NW 2.6 km/h 5.0 km/h 78% 0.0 mm 0 W/m2
04:28 18.0 °C 14.3 °C 1014.1 hPa NW 2.6 km/h 6.1 km/h 79% 0.0 mm 0 W/m2
04:33 17.9 °C 14.4 °C 1014.1 hPa WNW 5.0 km/h 7.2 km/h 80% 0.0 mm 0 W/m2
04:38 17.9 °C 14.6 °C 1014.1 hPa NW 2.6 km/h 7.2 km/h 81% 0.0 mm 0 W/m2
04:43 17.9 °C 14.6 °C 1014.4 hPa NW 3.5 km/h 7.2 km/h 81% 0.0 mm 0 W/m2
04:48 18.0 °C 14.5 °C 1014.1 hPa NW 3.5 km/h 7.2 km/h 80% 0.0 mm 0 W/m2
04:53 17.9 °C 14.6 °C 1014.1 hPa NW 1.1 km/h 6.1 km/h 81% 0.0 mm 0 W/m2
04:58 17.8 °C 14.5 °C 1014.4 hPa Calm   6.1 km/h 81% 0.0 mm 0 W/m2
05:03 17.6 °C 14.3 °C 1014.1 hPa NW 1.1 km/h 3.5 km/h 81% 0.0 mm 0 W/m2
05:08 17.5 °C 14.4 °C 1014.1 hPa Calm   3.5 km/h 82% 0.0 mm 0 W/m2
05:13 17.4 °C 14.1 °C 1014.4 hPa Calm   2.6 km/h 81% 0.0 mm 0 W/m2
05:18 17.4 °C 14.3 °C 1014.4 hPa Calm   2.6 km/h 82% 0.0 mm 0 W/m2
05:23 17.3 °C 14.2 °C 1014.1 hPa Calm   2.6 km/h 82% 0.0 mm 0 W/m2
05:28 17.2 °C 14.3 °C 1014.1 hPa Calm   2.6 km/h 83% 0.0 mm 0 W/m2
05:33 17.2 °C 14.3 °C 1014.1 hPa Calm   3.5 km/h 83% 0.0 mm 0 W/m2
05:38 17.2 °C 14.3 °C 1014.4 hPa Calm   3.5 km/h 83% 0.0 mm 0 W/m2
05:43 17.2 °C 14.3 °C 1014.1 hPa NNW 2.6 km/h 5.0 km/h 83% 0.0 mm 0 W/m2
05:48 17.3 °C 14.6 °C 1014.4 hPa NW 5.0 km/h 7.2 km/h 84% 0.0 mm 0 W/m2
05:53 17.4 °C 14.7 °C 1014.4 hPa NW 3.5 km/h 7.2 km/h 84% 0.0 mm 0 W/m2
05:58 17.4 °C 14.7 °C 1014.4 hPa NW 2.6 km/h 7.2 km/h 84% 0.0 mm 0 W/m2
06:03 17.5 °C 14.8 °C 1014.4 hPa NW 3.5 km/h 7.2 km/h 84% 0.0 mm 0 W/m2
06:08 17.8 °C 15.1 °C 1014.8 hPa NW 3.5 km/h 7.2 km/h 84% 0.0 mm 0 W/m2
06:13 17.9 °C 15.0 °C 1014.8 hPa NNW 3.5 km/h 7.2 km/h 83% 0.0 mm 0 W/m2
06:18 18.0 °C 15.3 °C 1014.8 hPa NNW 5.0 km/h 8.7 km/h 84% 0.0 mm 3 W/m2
06:23 18.2 °C 15.3 °C 1014.8 hPa NNW 7.2 km/h 9.7 km/h 83% 0.0 mm 6 W/m2
06:40 18.6 °C 15.5 °C 1014.8 hPa NNW 6.1 km/h 8.7 km/h 82% 0.0 mm 22 W/m2
06:45 18.7 °C 15.4 °C 1014.8 hPa NNW 6.1 km/h 9.7 km/h 81% 0.0 mm 40 W/m2
06:50 19.0 °C 15.5 °C 1014.8 hPa NNW 6.1 km/h 11.1 km/h 80% 0.0 mm 52 W/m2
06:55 19.2 °C 15.5 °C 1014.8 hPa NNW 3.5 km/h 11.1 km/h 79% 0.0 mm 53 W/m2
07:00 19.4 °C 15.5 °C 1014.8 hPa NNW 5.0 km/h 8.7 km/h 78% 0.0 mm 42 W/m2
07:05 19.3 °C 15.4 °C 1014.8 hPa NW 7.2 km/h 9.7 km/h 78% 0.0 mm 45 W/m2
07:10 19.3 °C 15.4 °C 1014.8 hPa NW 6.1 km/h 11.1 km/h 78% 0.0 mm 47 W/m2
07:15 19.3 °C 15.6 °C 1014.8 hPa NW 6.1 km/h 11.1 km/h 79% 0.0 mm 53 W/m2
07:20 19.4 °C 15.7 °C 1014.8 hPa NW 5.0 km/h 9.7 km/h 79% 0.0 mm 53 W/m2
07:25 19.6 °C 15.7 °C 1014.8 hPa NNW 5.0 km/h 9.7 km/h 78% 0.0 mm 55 W/m2
07:27 19.7 °C 15.8 °C 1014.8 hPa NNW 5.0 km/h 9.7 km/h 78% 0.0 mm 54 W/m2
07:32 19.7 °C 15.8 °C 1014.8 hPa NNW 2.6 km/h 9.7 km/h 78% 0.0 mm 51 W/m2
07:37 19.7 °C 15.8 °C 1014.8 hPa NNW 3.5 km/h 7.2 km/h 78% 0.0 mm 53 W/m2
07:42 19.7 °C 15.9 °C 1014.8 hPa North 6.1 km/h 8.7 km/h 79% 0.0 mm 57 W/m2
07:47 19.8 °C 16.1 °C 1014.8 hPa NNW 2.6 km/h 8.7 km/h 79% 0.0 mm 54 W/m2
07:52 19.9 °C 16.2 °C 1014.8 hPa North 3.5 km/h 8.7 km/h 79% 0.0 mm 54 W/m2
07:57 20.1 °C 16.3 °C 1014.8 hPa North 2.6 km/h 7.2 km/h 79% 0.0 mm 63 W/m2
08:02 20.3 °C 16.3 °C 1015.1 hPa North 2.6 km/h 7.2 km/h 78% 0.0 mm 77 W/m2
08:07 20.6 °C 16.7 °C 1015.1 hPa North 5.0 km/h 7.2 km/h 78% 0.0 mm 93 W/m2
08:12 20.9 °C 16.7 °C 1015.1 hPa North 2.6 km/h 7.2 km/h 77% 0.0 mm 102 W/m2
08:17 21.3 °C 16.5 °C 1015.1 hPa North 2.6 km/h 9.7 km/h 74% 0.0 mm 118 W/m2
08:22 21.7 °C 16.7 °C 1015.1 hPa North 6.1 km/h 13.4 km/h 73% 0.0 mm 136 W/m2
08:27 21.9 °C 16.7 °C 1014.8 hPa North 7.2 km/h 13.4 km/h 72% 0.0 mm 154 W/m2
08:32 22.1 °C 16.6 °C 1015.1 hPa NNW 11.1 km/h 15.8 km/h 71% 0.0 mm 164 W/m2
08:37 22.2 °C 16.7 °C 1014.8 hPa North 7.2 km/h 15.8 km/h 71% 0.0 mm 155 W/m2
08:42 22.4 °C 16.9 °C 1014.8 hPa North 6.1 km/h 15.8 km/h 71% 0.0 mm 156 W/m2
08:47 22.4 °C 16.7 °C 1014.8 hPa North 6.1 km/h 14.8 km/h 70% 0.0 mm 163 W/m2
08:52 22.6 °C 17.1 °C 1014.8 hPa NNW 6.1 km/h 14.8 km/h 71% 0.0 mm 176 W/m2
08:57 22.7 °C 16.7 °C 1014.8 hPa NNW 7.2 km/h 14.8 km/h 69% 0.0 mm 201 W/m2
09:02 22.9 °C 17.2 °C 1014.8 hPa North 6.1 km/h 14.8 km/h 70% 0.0 mm 197 W/m2
09:07 23.1 °C 17.1 °C 1014.4 hPa North 8.7 km/h 14.8 km/h 69% 0.0 mm 210 W/m2
09:12 23.7 °C 17.4 °C 1014.8 hPa NNW 9.7 km/h 14.8 km/h 68% 0.0 mm 422 W/m2
09:17 24.1 °C 17.1 °C 1014.8 hPa NW 11.1 km/h 14.8 km/h 65% 0.0 mm 251 W/m2
09:22 24.1 °C 17.1 °C 1014.4 hPa North 12.2 km/h 14.8 km/h 65% 0.0 mm 231 W/m2
09:27 24.0 °C 17.1 °C 1014.4 hPa North 11.1 km/h 17.2 km/h 65% 0.0 mm 304 W/m2
09:32 24.5 °C 17.5 °C 1014.4 hPa North 9.7 km/h 17.2 km/h 65% 0.0 mm 359 W/m2
09:37 24.6 °C 17.3 °C 1014.4 hPa North 8.7 km/h 19.5 km/h 64% 0.0 mm 216 W/m2
09:42 24.5 °C 17.3 °C 1014.8 hPa North 14.8 km/h 23.3 km/h 64% 0.0 mm 157 W/m2
09:47 24.1 °C 16.9 °C 1014.4 hPa NNW 9.7 km/h 23.3 km/h 64% 0.0 mm 143 W/m2
09:52 23.9 °C 16.9 °C 1014.4 hPa NNW 12.2 km/h 23.3 km/h 65% 0.0 mm 166 W/m2
09:57 23.9 °C 16.9 °C 1014.4 hPa NNW 7.2 km/h 20.9 km/h 65% 0.0 mm 167 W/m2
10:02 23.9 °C 16.9 °C 1014.4 hPa North 13.4 km/h 19.5 km/h 65% 0.0 mm 186 W/m2
10:07 24.1 °C 17.1 °C 1014.4 hPa North 11.1 km/h 19.5 km/h 65% 0.0 mm 244 W/m2
10:09 24.1 °C 17.1 °C 1014.4 hPa North 9.7 km/h 19.5 km/h 65% 0.0 mm 274 W/m2
10:14 24.4 °C 17.2 °C 1014.4 hPa NNW 9.7 km/h 15.8 km/h 64% 0.0 mm 336 W/m2
10:19 25.0 °C 17.5 °C 1014.4 hPa NNW 6.1 km/h 15.8 km/h 63% 0.0 mm 442 W/m2
10:24 25.4 °C 17.6 °C 1014.8 hPa NNW 8.7 km/h 15.8 km/h 62% 0.0 mm 386 W/m2
10:29 25.7 °C 17.6 °C 1014.8 hPa NNW 6.1 km/h 14.8 km/h 61% 0.0 mm 474 W/m2
10:34 25.6 °C 17.0 °C 1014.8 hPa NNW 9.7 km/h 17.2 km/h 59% 0.0 mm 328 W/m2
10:40 25.5 °C 16.9 °C 1014.8 hPa NNW 7.2 km/h 17.2 km/h 59% 0.0 mm 316 W/m2
10:45 25.4 °C 16.8 °C 1014.4 hPa NNW 2.6 km/h 12.2 km/h 59% 0.0 mm 319 W/m2
10:50 25.4 °C 16.8 °C 1014.8 hPa NNW 6.1 km/h 13.4 km/h 59% 0.0 mm 295 W/m2
10:55 25.3 °C 16.7 °C 1014.4 hPa NNW 7.2 km/h 13.4 km/h 59% 0.0 mm 305 W/m2
11:00 25.5 °C 17.2 °C 1014.8 hPa NNW 6.1 km/h 13.4 km/h 60% 0.0 mm 299 W/m2
11:05 25.5 °C 16.9 °C 1014.4 hPa NW 5.0 km/h 13.4 km/h 59% 0.0 mm 308 W/m2
11:10 25.4 °C 17.1 °C 1014.4 hPa NNW 7.2 km/h 15.8 km/h 60% 0.0 mm 276 W/m2
11:15 25.3 °C 17.3 °C 1014.4 hPa NNW 5.0 km/h 15.8 km/h 61% 0.0 mm 215 W/m2
11:20 25.2 °C 17.2 °C 1014.4 hPa NNW 8.7 km/h 13.4 km/h 61% 0.0 mm 171 W/m2
11:25 25.1 °C 17.3 °C 1014.4 hPa NW 6.1 km/h 13.4 km/h 62% 0.0 mm 141 W/m2
11:30 24.8 °C 17.6 °C 1014.4 hPa WNW 5.0 km/h 13.4 km/h 64% 0.0 mm 126 W/m2
11:35 24.3 °C 17.8 °C 1014.4 hPa NW 5.0 km/h 12.2 km/h 67% 0.0 mm 99 W/m2
11:40 24.1 °C 17.8 °C 1014.4 hPa NW 7.2 km/h 11.1 km/h 68% 0.0 mm 84 W/m2
11:45 23.9 °C 18.3 °C 1014.4 hPa NW 5.0 km/h 9.7 km/h 71% 0.0 mm 127 W/m2
11:50 23.6 °C 18.5 °C 1014.4 hPa WNW 3.5 km/h 8.7 km/h 73% 0.3 mm 92 W/m2
11:55 23.1 °C 18.4 °C 1014.1 hPa WNW 2.6 km/h 7.2 km/h 75% 0.3 mm 77 W/m2
12:00 22.9 °C 18.3 °C 1013.8 hPa Calm   7.2 km/h 75% 0.3 mm 126 W/m2
12:05 22.9 °C 18.4 °C 1013.8 hPa WNW 1.1 km/h 5.0 km/h 76% 0.3 mm 138 W/m2
12:10 22.9 °C 18.4 °C 1013.8 hPa WNW 2.6 km/h 5.0 km/h 76% 0.3 mm 133 W/m2
12:15 23.0 °C 18.8 °C 1013.8 hPa Calm   5.0 km/h 77% 0.3 mm 146 W/m2
12:20 23.0 °C 18.8 °C 1013.8 hPa Calm   5.0 km/h 77% 0.3 mm 146 W/m2
12:25 23.3 °C 19.3 °C 1013.8 hPa Calm   3.5 km/h 78% 0.3 mm 151 W/m2
12:30 23.3 °C 19.1 °C 1013.8 hPa Calm   3.5 km/h 77% 0.3 mm 168 W/m2
12:35 23.8 °C 19.8 °C 1013.8 hPa Calm   3.5 km/h 78% 0.3 mm 339 W/m2
12:40 24.8 °C 20.5 °C 1013.4 hPa Calm   1.1 km/h 77% 0.3 mm 341 W/m2
12:45 25.6 °C 20.7 °C 1013.1 hPa ENE 5.0 km/h 6.1 km/h 74% 0.3 mm 287 W/m2
12:50 25.4 °C 20.0 °C 1013.4 hPa ESE 1.1 km/h 6.1 km/h 72% 0.0 mm 464 W/m2
12:55 25.9 °C 20.1 °C 1013.4 hPa ESE 1.1 km/h 6.1 km/h 70% 0.3 mm 422 W/m2
13:00 26.6 °C 19.8 °C 1013.4 hPa NE 3.5 km/h 7.2 km/h 66% 0.3 mm 375 W/m2
13:05 26.1 °C 18.3 °C 1013.4 hPa North 2.6 km/h 7.2 km/h 62% 0.3 mm 297 W/m2
13:10 26.2 °C 18.9 °C 1013.4 hPa Calm   7.2 km/h 64% 0.3 mm 419 W/m2
13:15 26.9 °C 19.8 °C 1013.1 hPa WNW 3.5 km/h 7.2 km/h 65% 0.3 mm 360 W/m2
13:20 26.7 °C 19.3 °C 1013.1 hPa Calm   7.2 km/h 64% 0.3 mm 296 W/m2
13:25 26.5 °C 19.7 °C 1013.4 hPa Calm   6.1 km/h 66% 0.3 mm 205 W/m2
13:30 25.9 °C 18.8 °C 1013.4 hPa WNW 6.1 km/h 8.7 km/h 65% 0.3 mm 155 W/m2
13:35 25.3 °C 18.0 °C 1013.4 hPa NW 7.2 km/h 12.2 km/h 64% 0.3 mm 133 W/m2
13:40 25.0 °C 17.7 °C 1013.4 hPa NW 7.2 km/h 12.2 km/h 64% 0.3 mm 190 W/m2
13:45 24.9 °C 17.9 °C 1013.4 hPa NW 11.1 km/h 14.8 km/h 65% 0.3 mm 192 W/m2
13:50 24.9 °C 17.9 °C 1013.4 hPa NW 9.7 km/h 14.8 km/h 65% 0.3 mm 174 W/m2
13:55 24.8 °C 17.6 °C 1013.1 hPa NNW 7.2 km/h 18.3 km/h 64% 0.0 mm 268 W/m2
14:00 25.0 °C 17.5 °C 1013.1 hPa NNW 12.2 km/h 19.5 km/h 63% 0.0 mm 264 W/m2
14:05 25.1 °C 17.6 °C 1013.1 hPa NNW 9.7 km/h 19.5 km/h 63% 0.0 mm 204 W/m2
14:10 25.2 °C 17.7 °C 1013.1 hPa NNW 6.1 km/h 14.8 km/h 63% 0.0 mm 290 W/m2
14:15 25.3 °C 17.5 °C 1013.1 hPa NW 9.7 km/h 14.8 km/h 62% 0.0 mm 321 W/m2
14:20 25.4 °C 17.6 °C 1013.1 hPa NNW 6.1 km/h 20.9 km/h 62% 0.0 mm 266 W/m2
14:25 25.7 °C 17.6 °C 1013.1 hPa NNW 11.1 km/h 20.9 km/h 61% 0.0 mm 300 W/m2
14:30 25.8 °C 17.2 °C 1012.8 hPa NNW 8.7 km/h 15.8 km/h 59% 0.0 mm 237 W/m2
14:35 25.9 °C 17.6 °C 1012.8 hPa NNW 3.5 km/h 14.8 km/h 60% 0.0 mm 216 W/m2
14:40 26.0 °C 16.6 °C 1012.4 hPa NNW 11.1 km/h 14.8 km/h 56% 0.0 mm 154 W/m2
14:45 25.9 °C 16.2 °C 1012.4 hPa North 7.2 km/h 14.8 km/h 55% 0.0 mm 155 W/m2
14:50 25.8 °C 16.1 °C 1012.4 hPa NNE 8.7 km/h 14.8 km/h 55% 0.0 mm 126 W/m2
14:55 25.7 °C 15.4 °C 1012.8 hPa North 8.7 km/h 18.3 km/h 53% 0.0 mm 130 W/m2
15:00 25.5 °C 15.2 °C 1012.8 hPa North 7.2 km/h 18.3 km/h 53% 0.0 mm 120 W/m2
15:05 25.6 °C 15.6 °C 1012.4 hPa NNE 7.2 km/h 17.2 km/h 54% 0.0 mm 112 W/m2
15:10 25.5 °C 15.6 °C 1012.1 hPa NNE 3.5 km/h 15.8 km/h 54% 0.0 mm 167 W/m2
15:15 25.7 °C 15.4 °C 1012.1 hPa North 6.1 km/h 15.8 km/h 53% 0.0 mm 226 W/m2
15:20 26.1 °C 15.5 °C 1012.1 hPa North 3.5 km/h 12.2 km/h 52% 0.0 mm 293 W/m2
15:25 26.3 °C 15.1 °C 1011.7 hPa NNE 7.2 km/h 14.8 km/h 50% 0.0 mm 331 W/m2
15:30 26.6 °C 15.7 °C 1012.1 hPa North 7.2 km/h 18.3 km/h 51% 0.0 mm 269 W/m2
15:35 26.6 °C 15.1 °C 1011.7 hPa North 8.7 km/h 18.3 km/h 49% 0.0 mm 248 W/m2
Northern Hawkes Bay. New Zealand Historic Data
Compliments of Weather Underground - 1.75 mb